M I D A S
Marine Information and Data Acquisition System
Tripno 1524 of the Zeeleeuw from 2008-07-23 06:49:50 to 2008-07-23 13:39:48
Back to CruiseResearch ActivitiesStationsMapUnderway DataData graphs

EquipmentUnitsComment
TimeDGPSUTC
LatitudeDGPSDM.mWGS84
LongitudeDGPSDM.mWGS84
TemperatureSBE03/SBE38deg celciusITS90
ConductivitySBE21S/mITS90
SalinitySBE21 Practical Salinity Units
ChlorophylAChelsea fluorimeterg/lCalibrated in Aceton
Missing or incorrect values are displayed as -999
Sea surface data collected by the RV Zeeleeuw from 2008-07-23 06:45:42 to 2008-07-23 13:44:32
Time Latitude Longitude Temperature Conductivity Salinity ChlorophylA
2008-07-23 06:46:48 51°13.631 2°55.997 20.6747 0.022038 0.113499 -1.592577
2008-07-23 06:47:47 51°13.665 2°55.881 20.7041 0.022141 0.114026 -1.592577
2008-07-23 06:48:48 51°13.706 2°55.777 20.7136 0.022347 0.115076 -1.592577
2008-07-23 06:49:47 51°13.722 2°55.736 20.7192 0.022347 0.115084 -1.592577
2008-07-23 06:50:48 51°13.716 2°55.71 20.7403 0.023273 0.11976 -1.592577
2008-07-23 06:51:47 51°13.749 2°55.707 20.7586 0.023067 0.118735 -1.592577
2008-07-23 06:52:47 51°13.832 2°55.641 20.6734 0.022244 0.114565 -1.592577
2008-07-23 06:53:46 51°13.919 2°55.572 20.7065 0.022244 0.114575 -1.592577
2008-07-23 06:54:46 51°14.022 2°55.485 20.6751 0.021935 0.113023 -1.592577
2008-07-23 06:55:45 51°14.127 2°55.403 20.738 0.022655 0.116667 -1.592577
2008-07-23 06:56:44 51°14.239 2°55.286 20.7383 0.022449 0.115636 -1.592577
2008-07-23 06:57:43 51°14.354 2°55.083 20.6302 0.022758 0.117185 -1.592577
2008-07-23 06:58:43 51°14.462 2°54.815 20.6481 0.022758 0.117178 -1.592577
2008-07-23 06:59:43 51°14.554 2°54.516 20.608 0.024713 0.127109 -1.592577
2008-07-23 07:00:43 51°14.652 2°54.22 20.5673 0.023581 0.121407 -1.592577
2008-07-23 07:01:43 51°14.75 2°53.924 20.5743 0.024919 0.128272 -1.592577
2008-07-23 07:02:43 51°14.844 2°53.633 20.6357 0.023581 0.121507 -1.592577
2008-07-23 07:03:43 51°14.903 2°53.321 20.6113 0.022552 0.11633 -1.592577
2008-07-23 07:04:43 51°14.952 2°52.998 20.6074 0.024096 0.124214 -1.592577
2008-07-23 07:05:43 51°15.001 2°52.674 20.5963 0.02317 0.119549 -1.592577
2008-07-23 07:06:43 51°15.036 2°52.345 20.6015 0.022655 0.11695 -1.592577
2008-07-23 07:07:43 51°15.063 2°52.011 20.5971 0.02317 0.119554 -1.592577
2008-07-23 07:08:43 51°15.096 2°51.676 20.6252 0.021318 0.110176 -1.592577
2008-07-23 07:09:43 51°15.159 2°51.357 20.6168 0.022655 0.117018 -1.592577
2008-07-23 07:10:43 51°15.294 2°51.105 20.6037 0.02389 0.12327 -1.592577
2008-07-23 07:11:43 51°15.423 2°50.979 20.6566 0.030991 0.159764 -1.592577
2008-07-23 07:12:43 51°15.522 2°50.887 20.6288 0.028418 0.146522 -1.592577
2008-07-23 07:13:43 51°15.612 2°50.796 20.6775 0.028212 0.145542 -1.592577
2008-07-23 07:14:43 51°15.7 2°50.704 20.6869 0.027801 0.143421 -1.592577
2008-07-23 07:15:43 51°15.824 2°50.58 20.6813 0.024096 0.124499 -1.592577
2008-07-23 07:16:43 51°15.995 2°50.415 20.6867 0.024611 0.127178 -1.592577
2008-07-23 07:17:43 51°16.169 2°50.246 20.6954 0.024508 0.126693 -1.592577
2008-07-23 07:18:43 51°16.343 2°50.072 20.6937 0.023787 0.123062 -1.592577
2008-07-23 07:19:44 51°16.52 2°49.896 20.6889 0.02317 0.11993 -1.592577
2008-07-23 07:20:43 51°16.689 2°49.721 20.6866 0.025434 0.131597 -1.592577
2008-07-23 07:21:44 51°16.864 2°49.546 20.6965 0.025228 0.130549 -1.592577
2008-07-23 07:22:43 51°17.035 2°49.383 20.7215 0.02389 0.123755 -1.592577
2008-07-23 07:23:43 51°17.213 2°49.221 20.7439 0.025537 0.132108 -1.592577
2008-07-23 07:24:43 51°17.394 2°49.07 20.7349 0.024199 0.125311 -1.592577
2008-07-23 07:25:43 51°17.575 2°48.919 20.7471 0.024096 0.124808 -1.592577
2008-07-23 07:26:43 51°17.754 2°48.758 20.7567 0.025948 0.134358 -1.592577
2008-07-23 07:27:43 51°17.927 2°48.582 20.7719 0.023684 0.122766 -1.592577
2008-07-23 07:28:44 51°18.107 2°48.405 20.7648 0.024096 0.124882 -1.592577
2008-07-23 07:29:43 51°18.28 2°48.233 20.7906 0.023581 0.122248 -1.592577
2008-07-23 07:30:43 51°18.458 2°48.06 20.7878 0.023067 0.119638 -1.592577
2008-07-23 07:31:43 51°18.636 2°47.891 20.814 0.022861 0.118597 -1.592577
2008-07-23 07:32:43 51°18.813 2°47.725 20.8184 0.023376 0.121338 -1.592577
2008-07-23 07:33:43 51°18.99 2°47.561 20.827 0.022655 0.117585 -1.592577
2008-07-23 07:34:43 51°19.183 2°47.452 20.8503 0.025845 0.133865 -1.592577
2008-07-23 07:35:43 51°19.38 2°47.35 20.8424 0.025845 0.13392 -1.592577
2008-07-23 07:36:43 51°19.575 2°47.23 20.879 0.024508 0.127067 -1.592577
2008-07-23 07:37:43 51°19.744 2°47.048 20.8676 0.024405 0.126498 -1.592577
2008-07-23 07:38:43 51°19.906 2°46.848 20.8972 0.025434 0.131864 -1.592577
2008-07-23 07:39:43 51°20.071 2°46.647 20.9041 0.024096 0.124971 -1.592577
2008-07-23 07:40:43 51°20.237 2°46.442 20.9044 0.022655 0.117642 -1.592577
2008-07-23 07:41:43 51°20.404 2°46.239 20.9155 0.022655 0.117659 -1.592577
2008-07-23 07:42:43 51°20.579 2°46.055 20.9201 0.024919 0.129202 -1.592577
2008-07-23 07:43:43 51°20.76 2°45.887 20.9306 0.024508 0.127127 -1.592577
2008-07-23 07:44:43 51°20.942 2°45.714 20.9558 0.024611 0.127645 -1.592577
2008-07-23 07:45:43 51°21.12 2°45.534 20.9657 0.023993 0.124517 -1.592577
2008-07-23 07:46:44 51°21.301 2°45.361 20.9678 0.023067 0.119784 -1.592577
2008-07-23 07:47:43 51°21.479 2°45.201 20.984 0.025125 0.130333 -1.592577
2008-07-23 07:48:43 51°21.66 2°45.036 20.9966 0.026566 0.137801 -1.592577
2008-07-23 07:49:43 51°21.838 2°44.864 21.0139 0.024096 0.125078 -1.592577
2008-07-23 07:50:43 51°22.018 2°44.7 21.0214 0.022758 0.118224 -1.592577
2008-07-23 07:51:43 51°22.199 2°44.538 21.0386 0.02317 0.120354 -1.592577
2008-07-23 07:52:43 51°22.38 2°44.374 21.0426 0.024816 0.128789 -1.592577
2008-07-23 07:53:44 51°22.562 2°44.203 21.0638 0.023993 0.124538 -1.592577
2008-07-23 07:54:43 51°22.739 2°44.041 21.0606 0.023067 0.119817 -1.627401
2008-07-23 07:55:44 51°22.919 2°43.87 21.0657 0.024508 0.127228 -1.592577
2008-07-23 07:56:43 51°23.092 2°43.699 21.0928 0.024096 0.125122 -1.592577
2008-07-23 07:57:44 51°23.263 2°43.501 21.0944 0.024096 0.125114 -1.592577
2008-07-23 07:58:43 51°23.414 2°43.273 21.1212 0.023067 0.119873 -1.592577
2008-07-23 07:59:43 51°23.571 2°43.048 21.1319 0.023067 0.119858 -1.592577
2008-07-23 08:00:44 51°23.731 2°42.821 21.1348 0.023273 0.120909 -1.592577
2008-07-23 08:01:43 51°23.884 2°42.6 21.1359 0.025125 0.130423 -1.592577
2008-07-23 08:02:44 51°24.045 2°42.378 21.1662 0.023684 0.123008 -1.592577
2008-07-23 08:03:43 51°24.207 2°42.173 21.1721 0.024096 0.125133 -1.592577
2008-07-23 08:04:44 51°24.378 2°41.971 21.1898 0.022964 0.119354 -1.592577
2008-07-23 08:05:43 51°24.54 2°41.77 21.1915 0.02245 0.116703 -1.592577
2008-07-23 08:06:44 51°24.709 2°41.566 21.2123 0.023581 0.122485 -1.592577
2008-07-23 08:07:43 51°24.872 2°41.37 21.2057 0.024713 0.128317 -1.592577
2008-07-23 08:08:43 51°25.038 2°41.173 21.2267 0.022141 0.115132 -1.592577
2008-07-23 08:09:44 51°25.216 2°40.999 21.2387 0.023684 0.123085 -1.592577
2008-07-23 08:10:43 51°25.393 2°40.836 21.2663 0.023993 0.124638 -1.592577
2008-07-23 08:11:44 51°25.573 2°40.665 21.251 0.023581 0.122485 -1.592577
2008-07-23 08:12:43 51°25.746 2°40.497 21.2739 0.023067 0.119891 -1.592577
2008-07-23 08:13:44 51°25.926 2°40.328 21.2901 0.024816 0.128873 -1.592577
2008-07-23 08:14:43 51°26.087 2°40.136 21.3182 0.025125 0.130451 -1.592577
2008-07-23 08:15:44 51°26.235 2°39.885 21.3219 0.023067 0.119897 -1.592577
2008-07-23 08:16:43 51°26.373 2°39.631 21.3186 0.024816 0.128901 -1.592577
2008-07-23 08:17:43 51°26.511 2°39.374 21.3124 0.024508 0.12729 -1.592577
2008-07-23 08:18:43 51°26.653 2°39.121 21.3542 0.024508 0.127294 -1.592577
2008-07-23 08:19:43 51°26.795 2°38.867 21.3467 0.024199 0.125701 -1.592577
2008-07-23 08:20:43 51°26.934 2°38.612 21.3726 0.02317 0.120518 -1.592577
2008-07-23 08:21:43 51°27.072 2°38.356 21.3726 0.024405 0.12677 -1.592577
2008-07-23 08:22:43 51°27.217 2°38.11 21.3984 0.023581 0.122522 -1.592577
2008-07-23 08:23:43 51°27.363 2°37.863 21.4091 0.023479 0.122038 -1.592577
2008-07-23 08:24:43 51°27.507 2°37.612 21.427 0.022655 0.117835 -1.592577
2008-07-23 08:25:43 51°27.648 2°37.359 21.4379 0.02389 0.124173 -1.592577
2008-07-23 08:26:43 51°27.783 2°37.098 21.4207 0.022655 0.11781 -1.592577
2008-07-23 08:27:43 51°27.947 2°36.896 21.4644 0.025331 0.131549 -1.592577
2008-07-23 08:28:43 51°28.129 2°36.738 21.447 0.027492 0.142743 -1.592577
2008-07-23 08:29:44 51°28.332 2°36.672 21.4724 0.02564 0.133162 -1.592577
2008-07-23 08:30:43 51°28.532 2°36.62 21.4636 0.023684 0.123128 -1.592577
2008-07-23 08:31:43 51°28.732 2°36.644 21.4965 0.02389 0.124173 -1.592577
2008-07-23 08:32:43 51°28.93 2°36.691 21.4992 0.022964 0.119415 -1.592577
2008-07-23 08:33:43 51°29.124 2°36.766 21.5302 0.024405 0.126805 -1.592577
2008-07-23 08:34:43 51°29.316 2°36.854 21.5343 0.02389 0.124156 -1.592577
2008-07-23 08:35:43 51°29.508 2°36.935 21.537 0.023376 0.121598 -1.592577
2008-07-23 08:36:43 51°29.693 2°37.043 21.5355 0.02317 0.120509 -1.592577
2008-07-23 08:37:43 51°29.882 2°37.151 21.5798 0.025948 0.134773 -1.592577
2008-07-23 08:38:43 51°30.068 2°37.254 21.5764 0.024508 0.127368 -1.592577
2008-07-23 08:39:43 51°30.255 2°37.356 21.5936 0.023993 0.124699 -1.592577
2008-07-23 08:40:43 51°30.442 2°37.456 21.6067 0.024713 0.128435 -1.592577
2008-07-23 08:41:43 51°30.632 2°37.546 21.6131 0.02317 0.120518 -1.592577
2008-07-23 08:42:43 51°30.823 2°37.625 21.6251 0.023787 0.123685 -1.592577
2008-07-23 08:43:43 51°31.014 2°37.698 21.6418 0.024713 0.128398 -1.592577
2008-07-23 08:44:43 51°31.205 2°37.766 21.6535 0.025125 0.130533 -1.592577
2008-07-23 08:45:44 51°31.397 2°37.852 21.648 0.026566 0.138 -1.592577
2008-07-23 08:46:43 51°31.584 2°37.931 21.6648 0.022964 0.119446 -1.592577
2008-07-23 08:47:44 51°31.778 2°38.019 21.6639 0.024302 0.126317 -1.592577
2008-07-23 08:48:43 51°31.964 2°38.106 21.6754 0.023684 0.123137 -1.592577
2008-07-23 08:49:43 51°32.153 2°38.197 21.7049 0.026257 0.136408 -1.592577
2008-07-23 08:50:43 51°32.343 2°38.286 21.7055 0.027183 0.141166 -1.592577
2008-07-23 08:51:43 51°32.533 2°38.376 21.7259 0.023993 0.124726 -1.592577
2008-07-23 08:52:44 51°32.723 2°38.483 21.7496 0.025742 0.1337 -1.592577
2008-07-23 08:53:43 51°32.905 2°38.59 21.7439 0.022655 0.117883 -1.592577
2008-07-23 08:54:44 51°33.09 2°38.71 21.7487 0.024199 0.125818 -1.592577
2008-07-23 08:55:43 51°33.267 2°38.835 21.7748 0.02389 0.124215 -1.592577
2008-07-23 08:56:44 51°33.453 2°38.954 21.7666 0.023787 0.123672 -1.592577
2008-07-23 08:57:43 51°33.632 2°39.075 21.7956 0.023376 0.121548 -1.592577
2008-07-23 08:58:44 51°33.817 2°39.197 21.8118 0.024199 0.125784 -1.592577
2008-07-23 08:59:44 51°33.997 2°39.33 21.7993 0.025125 0.130527 -1.592577
2008-07-23 09:00:44 51°34.178 2°39.461 21.8386 0.025331 0.131622 -1.592577
2008-07-23 09:01:44 51°34.358 2°39.595 21.8421 0.025331 0.131612 -1.592577
2008-07-23 09:02:44 51°34.541 2°39.714 21.8489 0.022655 0.117869 -1.592577
2008-07-23 09:03:44 51°34.729 2°39.82 21.8655 0.02317 0.120509 -1.592577
2008-07-23 09:04:44 51°34.915 2°39.93 21.8701 0.022861 0.118975 -1.592577
2008-07-23 09:05:43 51°35.099 2°40.037 21.8575 0.02564 0.133218 -1.592577
2008-07-23 09:06:44 51°35.286 2°40.16 21.8941 0.024096 0.12529 -1.592577
2008-07-23 09:07:43 51°35.47 2°40.265 21.8991 0.022141 0.115314 -1.592577
2008-07-23 09:08:44 51°35.665 2°40.344 21.9034 0.02389 0.124232 -1.592577
2008-07-23 09:09:43 51°35.849 2°40.433 21.9251 0.024508 0.127372 -1.592577
2008-07-23 09:10:44 51°36.042 2°40.519 21.9314 0.024713 0.128424 -1.592577
2008-07-23 09:11:43 51°36.229 2°40.598 21.9541 0.024816 0.128964 -1.592577
2008-07-23 09:12:44 51°36.422 2°40.671 21.9506 0.024199 0.125793 -1.592577
2008-07-23 09:13:43 51°36.606 2°40.755 21.9831 0.027389 0.142203 -1.592577
2008-07-23 09:14:44 51°36.797 2°40.825 21.9842 0.023993 0.124783 -1.592577
2008-07-23 09:15:43 51°36.985 2°40.876 21.991 0.025022 0.130032 -1.592577
2008-07-23 09:16:44 51°37.18 2°40.925 21.9955 0.023993 0.124756 -1.592577
2008-07-23 09:17:44 51°37.371 2°40.971 22.0148 0.023067 0.119995 -1.592577
2008-07-23 09:18:44 51°37.561 2°41.016 22.0284 0.024199 0.125801 -1.592577
2008-07-23 09:19:44 51°37.751 2°41.063 22.0256 0.02389 0.124238 -1.592577
2008-07-23 09:20:44 51°37.942 2°41.101 22.0381 0.025434 0.132174 -1.592577
2008-07-23 09:21:44 51°38.133 2°41.139 22.0618 0.025228 0.131097 -1.592577
2008-07-23 09:22:43 51°38.322 2°41.169 22.0578 0.024508 0.127366 -1.592577
2008-07-23 09:23:44 51°38.517 2°41.213 22.0624 0.024405 0.126854 -1.592577
2008-07-23 09:24:44 51°38.708 2°41.254 22.0852 0.024611 0.127901 -1.592577
2008-07-23 09:25:44 51°38.899 2°41.286 22.0895 0.02317 0.120558 -1.592577
2008-07-23 09:26:44 51°39.057 2°41.413 22.0813 0.025948 0.134808 -1.592577
2008-07-23 09:27:44 51°39.093 2°41.696 22.1359 0.027801 0.144405 -1.592577
2008-07-23 09:28:44 51°39.081 2°42 22.1302 0.024919 0.129527 -1.592577
2008-07-23 09:29:44 51°39.051 2°42.308 22.1442 0.022655 0.117899 -1.592577
2008-07-23 09:30:44 51°38.988 2°42.601 22.1391 0.02636 0.13694 -1.592577
2008-07-23 09:31:44 51°38.832 2°42.817 22.1581 0.026669 0.13855 -1.592577
2008-07-23 09:32:44 51°38.631 2°42.919 22.1754 0.029756 0.154544 -1.592577
2008-07-23 09:33:44 51°38.414 2°42.878 22.2018 0.023479 0.122127 -1.592577
2008-07-23 09:34:43 51°38.199 2°42.831 22.1941 0.023273 0.121078 -1.592577
2008-07-23 09:35:44 51°37.979 2°42.754 22.1968 0.023067 0.120027 -1.592577
2008-07-23 09:36:43 51°37.767 2°42.678 22.2154 0.022964 0.119479 -1.592577
2008-07-23 09:37:44 51°37.549 2°42.594 22.2413 0.022861 0.11895 -1.592577
2008-07-23 09:38:43 51°37.335 2°42.523 22.2373 0.022861 0.118954 -1.592577
2008-07-23 09:39:44 51°37.113 2°42.447 22.2395 0.026772 0.139058 -1.592577
2008-07-23 09:40:43 51°36.9 2°42.361 22.2672 0.023376 0.121577 -1.592577
2008-07-23 09:41:44 51°36.678 2°42.273 22.2692 0.02389 0.124221 -1.557753
2008-07-23 09:42:44 51°36.46 2°42.199 22.2759 0.029241 0.151849 -1.592577
2008-07-23 09:43:44 51°36.241 2°42.126 22.2917 0.024302 0.126391 -1.592577
2008-07-23 09:44:44 51°36.023 2°42.045 22.3025 0.023067 0.120036 -1.592577
2008-07-23 09:45:44 51°35.805 2°41.961 22.3327 0.022552 0.117392 -1.592577
2008-07-23 09:46:44 51°35.587 2°41.877 22.318 0.022964 0.11949 -1.592577
2008-07-23 09:47:44 51°35.368 2°41.791 22.3269 0.022141 0.115288 -1.592577
2008-07-23 09:48:44 51°35.148 2°41.698 22.3499 0.023479 0.122149 -1.557753
2008-07-23 09:49:44 51°34.927 2°41.619 22.3127 0.02317 0.120563 -1.592577
2008-07-23 09:50:44 51°34.706 2°41.532 22.3421 0.021832 0.113712 -1.592577
2008-07-23 09:51:44 51°34.486 2°41.446 22.3838 0.02245 0.116877 -1.592577
2008-07-23 09:52:44 51°34.264 2°41.367 22.4247 0.025845 0.134317 -1.592577
2008-07-23 09:53:44 51°34.086 2°41.481 22.3589 0.02317 0.120542 -1.592577
2008-07-23 09:54:44 51°33.919 2°41.682 22.4064 0.025742 0.133787 -1.592577
2008-07-23 09:55:44 51°33.743 2°41.865 22.4059 0.028315 0.147054 -1.592577
2008-07-23 09:56:44 51°33.541 2°41.974 22.4095 0.041796 0.217741 -1.592577
2008-07-23 09:57:44 51°33.335 2°41.85 22.4047 0.029035 0.150765 -1.592577
2008-07-23 09:58:44 51°33.147 2°41.64 22.4417 0.028521 0.14822 -1.592577
2008-07-23 09:59:44 51°32.967 2°41.411 22.4389 0.025434 0.132229 -1.592577
2008-07-23 10:00:44 51°32.79 2°41.179 22.4671 0.027492 0.142895 -1.592577
2008-07-23 10:01:44 51°32.608 2°40.962 22.4902 0.024919 0.129597 -1.592577
2008-07-23 10:02:44 51°32.412 2°41.009 22.5314 0.024096 0.125397 -1.592577
2008-07-23 10:03:44 51°32.403 2°41.244 22.5305 0.02245 0.116947 -1.592577
2008-07-23 10:04:44 51°32.564 2°41.333 22.4908 0.023479 0.122162 -1.592577
2008-07-23 10:05:44 51°32.738 2°41.395 22.4912 0.024816 0.129018 -1.592577
2008-07-23 10:06:44 51°32.908 2°41.478 22.4891 0.024816 0.129049 -1.592577
2008-07-23 10:07:44 51°33.075 2°41.572 22.5257 0.026772 0.139192 -1.592577
2008-07-23 10:08:44 51°33.243 2°41.654 22.5104 0.024405 0.127001 -1.592577
2008-07-23 10:09:44 51°33.41 2°41.741 22.5227 0.02317 0.120686 -1.592577
2008-07-23 10:10:44 51°33.579 2°41.823 22.5436 0.025845 0.134431 -1.592577
2008-07-23 10:11:44 51°33.747 2°41.904 22.5508 0.025331 0.131785 -1.592577
2008-07-23 10:12:44 51°33.913 2°41.995 22.541 0.024919 0.129708 -1.592577
2008-07-23 10:13:44 51°34.082 2°42.074 22.5395 0.025022 0.13024 -1.592577
2008-07-23 10:14:44 51°34.248 2°42.16 22.5487 0.023067 0.120204 -1.592577
2008-07-23 10:15:44 51°34.415 2°42.25 22.5704 0.025331 0.13186 -1.592577
2008-07-23 10:16:44 51°34.58 2°42.338 22.5767 0.024302 0.126567 -1.592577
2008-07-23 10:17:44 51°34.746 2°42.425 22.5995 0.026463 0.137693 -1.592577
2008-07-23 10:18:44 51°34.911 2°42.505 22.602 0.024713 0.128654 -1.592577
2008-07-23 10:19:44 51°35.075 2°42.594 22.6163 0.025022 0.130275 -1.592577
2008-07-23 10:20:44 51°35.24 2°42.681 22.6227 0.023376 0.121801 -1.592577
2008-07-23 10:21:44 51°35.407 2°42.756 22.6141 0.024816 0.129208 -1.592577
2008-07-23 10:22:44 51°35.575 2°42.829 22.629 0.023581 0.122864 -1.592577
2008-07-23 10:23:44 51°35.742 2°42.905 22.6526 0.025022 0.130279 -1.592577
2008-07-23 10:24:44 51°35.906 2°42.989 22.6549 0.023993 0.124977 -1.592577
2008-07-23 10:25:44 51°36.071 2°43.083 22.662 0.024713 0.128692 -1.592577
2008-07-23 10:26:44 51°36.232 2°43.178 22.6541 0.025331 0.131909 -1.592577
2008-07-23 10:27:44 51°36.392 2°43.28 22.6771 0.023993 0.124981 -1.557753
2008-07-23 10:28:44 51°36.553 2°43.387 22.6927 0.024302 0.126608 -1.592577
2008-07-23 10:29:44 51°36.713 2°43.486 22.6865 0.02564 0.133564 -1.592577
2008-07-23 10:30:44 51°36.874 2°43.585 22.69 0.02389 0.12453 -1.592577
2008-07-23 10:31:44 51°37.035 2°43.683 22.7062 0.023993 0.125046 -1.592577
2008-07-23 10:32:44 51°37.196 2°43.786 22.7077 0.024405 0.1272 -1.592577
2008-07-23 10:33:44 51°37.36 2°43.877 22.7083 0.025742 0.134085 -1.592577
2008-07-23 10:34:44 51°37.521 2°43.972 22.7364 0.023993 0.125088 -1.592577
2008-07-23 10:35:44 51°37.683 2°44.073 22.7449 0.02389 0.124553 -1.592577
2008-07-23 10:36:44 51°37.845 2°44.173 22.7378 0.025125 0.130902 -1.592577
2008-07-23 10:37:44 51°38.005 2°44.28 22.7624 0.023787 0.12402 -1.592577
2008-07-23 10:38:44 51°38.163 2°44.394 22.7508 0.02389 0.124534 -1.592577
2008-07-23 10:39:44 51°38.322 2°44.5 22.7824 0.023273 0.121399 -1.592577
2008-07-23 10:40:44 51°38.481 2°44.602 22.7904 0.024199 0.126177 -1.592577
2008-07-23 10:41:44 51°38.643 2°44.7 22.7754 0.026874 0.140009 -1.592577
2008-07-23 10:42:44 51°38.805 2°44.79 22.7997 0.025331 0.132029 -1.592577
2008-07-23 10:43:44 51°38.967 2°44.883 22.8144 0.022964 0.119835 -1.592577
2008-07-23 10:44:44 51°39.129 2°44.976 22.8202 0.024508 0.127778 -1.592577
2008-07-23 10:45:44 51°39.29 2°45.07 22.8223 0.023993 0.125167 -1.592577
2008-07-23 10:46:44 51°39.451 2°45.166 22.8321 0.024302 0.126738 -1.592577
2008-07-23 10:47:44 51°39.612 2°45.263 22.825 0.02389 0.124616 -1.592577
2008-07-23 10:48:44 51°39.775 2°45.354 22.8525 0.023581 0.123052 -1.592577
2008-07-23 10:49:44 51°39.935 2°45.448 22.8382 0.023376 0.121985 -1.592577
2008-07-23 10:50:44 51°40.095 2°45.547 22.8556 0.023993 0.125169 -1.592577
2008-07-23 10:51:44 51°40.254 2°45.648 22.882 0.022964 0.119855 -1.592577
2008-07-23 10:52:44 51°40.413 2°45.752 22.8669 0.024713 0.128918 -1.592577
2008-07-23 10:53:44 51°40.569 2°45.864 22.8811 0.023376 0.122066 -1.592577
2008-07-23 10:54:44 51°40.728 2°45.973 22.8859 0.025845 0.134759 -1.592577
2008-07-23 10:55:44 51°40.888 2°46.077 22.8939 0.02389 0.124685 -1.592577
2008-07-23 10:56:44 51°41.045 2°46.188 22.9119 0.024508 0.127884 -1.592577
2008-07-23 10:57:44 51°41.205 2°46.292 22.9209 0.024508 0.127913 -1.592577
2008-07-23 10:58:44 51°41.362 2°46.408 22.9294 0.023582 0.123142 -1.592577
2008-07-23 10:59:44 51°41.52 2°46.519 22.9248 0.02317 0.121045 -1.592577
2008-07-23 11:00:44 51°41.681 2°46.621 22.9458 0.025537 0.133202 -1.592577
2008-07-23 11:01:44 51°41.835 2°46.737 22.9369 0.024302 0.126855 -1.592577
2008-07-23 11:02:44 51°41.991 2°46.855 22.9317 0.025022 0.130587 -1.557753
2008-07-23 11:03:44 51°42.064 2°47.094 22.9507 0.030991 0.161645 -1.592577
2008-07-23 11:04:44 51°42.007 2°47.348 22.9959 0.035107 0.183255 -1.557753
2008-07-23 11:05:44 51°41.949 2°47.481 22.9916 0.026154 0.136459 -1.592577
2008-07-23 11:06:44 51°41.905 2°47.582 23.014 0.026257 0.136968 -1.557753
2008-07-23 11:07:44 51°41.866 2°47.678 23.0169 0.023067 0.120514 -1.592577
2008-07-23 11:08:44 51°41.8 2°47.896 23.0053 0.026669 0.139145 -1.592577
2008-07-23 11:09:44 51°41.65 2°48.11 22.9954 0.023067 0.120508 -1.592577
2008-07-23 11:10:44 51°41.454 2°48.246 23.023 0.037165 0.194065 -1.592577
2008-07-23 11:11:44 51°41.256 2°48.374 23.065 0.029344 0.153073 -1.592577
2008-07-23 11:12:44 51°41.049 2°48.479 23.0295 0.024302 0.126889 -1.557753
2008-07-23 11:13:44 51°40.83 2°48.496 23.0287 0.028624 0.149328 -1.557753
2008-07-23 11:14:44 51°40.604 2°48.457 23.0709 0.027183 0.141833 -1.557753
2008-07-23 11:15:44 51°40.38 2°48.418 23.0708 0.024096 0.125852 -1.557753
2008-07-23 11:16:43 51°40.158 2°48.354 23.0899 0.023684 0.123765 -1.557753
2008-07-23 11:17:44 51°39.93 2°48.284 23.0823 0.025948 0.13546 -1.557753
2008-07-23 11:18:44 51°39.705 2°48.221 23.1047 0.022964 0.120032 -1.557753
2008-07-23 11:19:44 51°39.48 2°48.15 23.0856 0.023582 0.123203 -1.557753
2008-07-23 11:20:44 51°39.255 2°48.08 23.1107 0.02317 0.121084 -1.557753
2008-07-23 11:21:44 51°39.031 2°48.007 23.1005 0.022964 0.120036 -1.557753
2008-07-23 11:22:44 51°38.806 2°47.936 23.1313 0.022861 0.119512 -1.557753
2008-07-23 11:23:44 51°38.581 2°47.864 23.0879 0.043545 0.228091 -1.557753
2008-07-23 11:24:44 51°38.357 2°47.784 23.1135 0.024508 0.127963 -1.592577
2008-07-23 11:25:44 51°38.132 2°47.698 23.1362 0.023376 0.122152 -1.557753
2008-07-23 11:26:44 51°37.909 2°47.618 23.1532 0.02389 0.124823 -1.557753
2008-07-23 11:27:44 51°37.688 2°47.535 23.1557 0.02389 0.124836 -1.592577
2008-07-23 11:28:44 51°37.465 2°47.458 23.168 0.024405 0.127487 -1.557753
2008-07-23 11:29:44 51°37.245 2°47.361 23.1733 0.023067 0.120586 -1.557753
2008-07-23 11:30:44 51°37.028 2°47.233 23.1778 0.021523 0.112654 -1.557753
2008-07-23 11:31:44 51°36.812 2°47.104 23.2054 0.025948 0.135504 -1.557753
2008-07-23 11:32:44 51°36.599 2°46.953 23.1712 0.022655 0.118475 -1.557753
2008-07-23 11:33:44 51°36.388 2°46.792 23.1929 0.031814 0.166075 -1.557753
2008-07-23 11:34:43 51°36.182 2°46.642 23.2064 0.026772 0.139743 -1.557753
2008-07-23 11:35:43 51°35.971 2°46.49 23.2144 0.02883 0.150498 -1.557753
2008-07-23 11:36:44 51°35.756 2°46.337 23.197 0.024405 0.127502 -1.557753
2008-07-23 11:37:44 51°35.547 2°46.185 23.2156 0.027801 0.145126 -1.557753
2008-07-23 11:38:44 51°35.337 2°46.026 23.2237 0.023787 0.124338 -1.557753
2008-07-23 11:39:44 51°35.131 2°45.851 23.239 0.024405 0.127536 -1.557753
2008-07-23 11:40:44 51°34.923 2°45.686 23.2294 0.023582 0.123301 -1.557753
2008-07-23 11:41:44 51°34.715 2°45.525 23.2523 0.02708 0.141459 -1.557753
2008-07-23 11:42:44 51°34.512 2°45.355 23.2769 0.024508 0.128081 -1.557753
2008-07-23 11:43:44 51°34.306 2°45.19 23.2436 0.024611 0.128621 -1.557753
2008-07-23 11:44:44 51°34.097 2°45.034 23.2639 0.040458 0.211806 -1.557753
2008-07-23 11:45:44 51°33.891 2°44.87 23.2621 0.025743 0.134536 -1.557753
2008-07-23 11:46:44 51°33.682 2°44.708 23.2834 0.026463 0.13829 -1.557753
2008-07-23 11:47:44 51°33.473 2°44.556 23.2831 0.024405 0.127619 -1.557753
2008-07-23 11:48:44 51°33.266 2°44.396 23.2992 0.024199 0.12656 -1.557753
2008-07-23 11:49:44 51°33.057 2°44.237 23.2619 0.024611 0.128687 -1.592577
2008-07-23 11:50:44 51°32.846 2°44.091 23.332 0.027492 0.143634 -1.557753
2008-07-23 11:51:44 51°32.635 2°43.945 23.2946 0.024713 0.129206 -1.592577
2008-07-23 11:52:44 51°32.427 2°43.791 23.3008 0.024405 0.12762 -1.592577
2008-07-23 11:53:44 51°32.217 2°43.638 23.3079 0.023479 0.122844 -1.557753
2008-07-23 11:54:44 51°32.006 2°43.497 23.3137 0.025228 0.131867 -1.557753
2008-07-23 11:55:44 51°31.791 2°43.375 23.2914 0.02883 0.150603 -1.592577
2008-07-23 11:56:44 51°31.573 2°43.267 23.3383 0.024508 0.128147 -1.557753
2008-07-23 11:57:44 51°31.355 2°43.175 23.3542 0.023993 0.125516 -1.557753
2008-07-23 11:58:44 51°31.136 2°43.202 23.3216 0.024302 0.127114 -1.557753
2008-07-23 11:59:44 51°30.917 2°43.256 23.3574 0.023067 0.120722 -1.557753
2008-07-23 12:00:44 51°30.707 2°43.345 23.3244 0.02389 0.124973 -1.592577
2008-07-23 12:01:44 51°30.502 2°43.453 23.352 0.024096 0.126056 -1.557753
2008-07-23 12:02:44 51°30.289 2°43.536 23.3333 0.031814 0.166305 -1.557753
2008-07-23 12:03:44 51°30.075 2°43.611 23.3566 0.024199 0.126578 -1.557753
2008-07-23 12:04:44 51°29.862 2°43.692 23.3784 0.025022 0.130858 -1.592577
2008-07-23 12:05:44 51°29.652 2°43.774 23.3825 0.02389 0.125017 -1.557753
2008-07-23 12:06:44 51°29.442 2°43.858 23.3695 0.022347 0.117028 -1.592577
2008-07-23 12:07:44 51°29.234 2°43.949 23.3645 0.023273 0.121817 -1.557753
2008-07-23 12:08:44 51°29.025 2°44.032 23.3739 0.02389 0.125009 -1.557753
2008-07-23 12:09:44 51°28.819 2°44.125 23.3867 0.023684 0.12395 -1.592577
2008-07-23 12:10:44 51°28.611 2°44.212 23.3968 0.02245 0.117575 -1.592577
2008-07-23 12:11:44 51°28.408 2°44.307 23.408 0.022244 0.116514 -1.557753
2008-07-23 12:12:44 51°28.206 2°44.405 23.4089 0.022347 0.117029 -1.557753
2008-07-23 12:13:44 51°28 2°44.489 23.4131 0.022758 0.119158 -1.592577
2008-07-23 12:14:44 51°27.795 2°44.575 23.4123 0.023376 0.122345 -1.557753
2008-07-23 12:15:44 51°27.59 2°44.66 23.3842 0.027286 0.142637 -1.557753
2008-07-23 12:16:44 51°27.386 2°44.738 23.4298 0.02245 0.117566 -1.592577
2008-07-23 12:17:44 51°27.181 2°44.814 23.4027 0.022758 0.119149 -1.592577
2008-07-23 12:18:44 51°26.977 2°44.891 23.4611 0.022758 0.119158 -1.592577
2008-07-23 12:19:44 51°26.771 2°44.966 23.4586 0.025022 0.130862 -1.557753
2008-07-23 12:20:44 51°26.566 2°45.049 23.4398 0.023993 0.125524 -1.592577
2008-07-23 12:21:44 51°26.361 2°45.129 23.4608 0.024096 0.126056 -1.557753
2008-07-23 12:22:44 51°26.155 2°45.213 23.4451 0.02389 0.124973 -1.557753
2008-07-23 12:23:44 51°25.952 2°45.312 23.4539 0.024302 0.127094 -1.557753
2008-07-23 12:24:44 51°25.755 2°45.427 23.4575 0.022347 0.117004 -1.592577
2008-07-23 12:25:43 51°25.555 2°45.527 23.478 0.022038 0.115425 -1.557753
2008-07-23 12:26:44 51°25.352 2°45.645 23.4912 0.021935 0.11491 -1.557753
2008-07-23 12:27:44 51°25.152 2°45.761 23.5066 0.023376 0.122345 -1.557753
2008-07-23 12:28:44 51°24.962 2°45.898 23.476 0.022964 0.120216 -1.592577
2008-07-23 12:29:44 51°24.772 2°46.022 23.4594 0.031196 0.163039 -1.592577
2008-07-23 12:30:44 51°24.584 2°46.141 23.4897 0.023067 0.120695 -1.592577
2008-07-23 12:31:44 51°24.399 2°46.267 23.5255 0.02564 0.134046 -1.592577
2008-07-23 12:32:44 51°24.211 2°46.392 23.5003 0.022758 0.119138 -1.592577
2008-07-23 12:33:44 51°24.021 2°46.515 23.5102 0.026874 0.140479 -1.592577
2008-07-23 12:34:44 51°23.832 2°46.639 23.5363 0.023376 0.122311 -1.557753
2008-07-23 12:35:44 51°23.645 2°46.773 23.5359 0.022964 0.120183 -1.592577
2008-07-23 12:36:44 51°23.448 2°46.878 23.5135 0.022861 0.119671 -1.592577
2008-07-23 12:37:44 51°23.241 2°46.947 23.5506 0.023273 0.121789 -1.592577
2008-07-23 12:38:44 51°23.036 2°47.029 23.543 0.023582 0.123379 -1.557753
2008-07-23 12:39:44 51°22.832 2°47.115 23.5579 0.022552 0.118062 -1.557753
2008-07-23 12:40:44 51°22.626 2°47.203 23.5874 0.022244 0.116478 -1.557753
2008-07-23 12:41:44 51°22.431 2°47.325 23.563 0.023067 0.120728 -1.592577
2008-07-23 12:42:44 51°22.239 2°47.461 23.5667 0.023479 0.122853 -1.592577
2008-07-23 12:43:44 51°22.047 2°47.597 23.6109 0.025331 0.132446 -1.592577
2008-07-23 12:44:44 51°21.863 2°47.748 23.5695 0.023067 0.120689 -1.592577
2008-07-23 12:45:44 51°21.679 2°47.899 23.5792 0.022552 0.118028 -1.557753
2008-07-23 12:46:44 51°21.496 2°48.041 23.6089 0.022038 0.115406 -1.557753
2008-07-23 12:47:44 51°21.312 2°48.181 23.5885 0.023479 0.122813 -1.557753
2008-07-23 12:48:44 51°21.129 2°48.325 23.5952 0.022655 0.118549 -1.592577
2008-07-23 12:49:44 51°20.946 2°48.461 23.624 0.02636 0.137697 -1.592577
2008-07-23 12:50:44 51°20.77 2°48.606 23.6065 0.026669 0.139241 -1.592577
2008-07-23 12:51:44 51°20.595 2°48.758 23.5892 0.029138 0.1522 -1.557753
2008-07-23 12:52:44 51°20.418 2°48.904 23.6555 0.023376 0.122249 -1.592577
2008-07-23 12:53:44 51°20.247 2°49.065 23.6381 0.022758 0.119026 -1.592577
2008-07-23 12:54:44 51°20.075 2°49.225 23.6341 0.025743 0.134517 -1.592577
2008-07-23 12:55:44 51°19.905 2°49.391 23.6771 0.024405 0.127563 -1.592577
2008-07-23 12:56:44 51°19.734 2°49.556 23.6621 0.022552 0.11801 -1.592577
2008-07-23 12:57:44 51°19.563 2°49.721 23.6469 0.025022 0.130761 -1.592577
2008-07-23 12:58:44 51°19.392 2°49.888 23.6526 0.024199 0.126521 -1.557753
2008-07-23 12:59:44 51°19.22 2°50.054 23.6847 0.023993 0.125468 -1.592577
2008-07-23 13:00:44 51°19.095 2°50.283 23.6966 0.022141 0.115915 -1.592577
2008-07-23 13:01:44 51°19.039 2°50.511 23.7283 0.02317 0.121201 -1.592577
2008-07-23 13:02:44 51°19.028 2°50.551 23.7245 0.022655 0.118567 -1.592577
2008-07-23 13:03:47 51°19.022 2°50.537 23.7455 0.025537 0.133469 -1.592577
2008-07-23 13:04:45 51°19.032 2°50.491 23.7242 0.024508 0.128054 -1.592577
2008-07-23 13:05:44 51°19.019 2°50.462 23.7198 0.024199 0.126498 -1.557753
2008-07-23 13:06:44 51°19.004 2°50.434 23.7351 0.023582 0.123331 -1.592577
2008-07-23 13:07:44 51°18.982 2°50.376 23.7511 0.02389 0.12493 -1.592577
2008-07-23 13:08:44 51°18.919 2°50.292 23.727 0.024508 0.128139 -1.592577
2008-07-23 13:09:44 51°18.877 2°50.232 23.7536 0.025228 0.131843 -1.592577
2008-07-23 13:10:44 51°18.85 2°50.183 23.7536 0.026977 0.140899 -1.592577
2008-07-23 13:11:44 51°18.827 2°50.14 23.772 0.028006 0.146257 -1.557753
2008-07-23 13:12:44 51°18.776 2°50.092 23.8112 0.02317 0.121134 -1.592577
2008-07-23 13:13:44 51°18.671 2°50.199 23.7404 0.02389 0.124913 -1.592577
2008-07-23 13:14:44 51°18.521 2°50.411 23.7585 0.022758 0.119057 -1.592577
2008-07-23 13:15:44 51°18.364 2°50.625 23.7876 0.028006 0.146248 -1.592577
2008-07-23 13:16:44 51°18.206 2°50.834 23.7711 0.032637 0.170469 -1.592577
2008-07-23 13:17:44 51°18.056 2°51.057 23.7771 0.024199 0.126451 -1.592577
2008-07-23 13:18:44 51°17.906 2°51.277 23.7853 0.021523 0.112668 -1.592577
2008-07-23 13:19:44 51°17.733 2°51.454 23.801 0.02389 0.12489 -1.592577
2008-07-23 13:20:44 51°17.54 2°51.588 23.8109 0.022964 0.120087 -1.557753
2008-07-23 13:21:44 51°17.346 2°51.721 23.7956 0.021832 0.114249 -1.592577
2008-07-23 13:22:44 51°17.152 2°51.855 23.7865 0.022244 0.116356 -1.592577
2008-07-23 13:23:44 51°16.965 2°52.002 23.7895 0.021626 0.113174 -1.592577
2008-07-23 13:24:44 51°16.788 2°52.175 23.7991 0.021729 0.113693 -1.592577
2008-07-23 13:25:44 51°16.608 2°52.344 23.8269 0.021832 0.114218 -1.592577
2008-07-23 13:26:44 51°16.425 2°52.504 23.8303 0.021729 0.113678 -1.557753
2008-07-23 13:27:44 51°16.239 2°52.664 23.8309 0.021832 0.114199 -1.592577
2008-07-23 13:28:44 51°16.054 2°52.822 23.8347 0.021112 0.110491 -1.592577
2008-07-23 13:29:44 51°15.88 2°52.991 23.8271 0.021318 0.111539 -1.592577
2008-07-23 13:30:44 51°15.709 2°53.168 23.8449 0.021832 0.114175 -1.557753
2008-07-23 13:31:44 51°15.536 2°53.34 23.8583 0.021215 0.110996 -1.592577
2008-07-23 13:32:44 51°15.367 2°53.52 23.8436 0.021215 0.110981 -1.592577
2008-07-23 13:33:44 51°15.196 2°53.695 23.8781 0.021523 0.112563 -1.592577
2008-07-23 13:34:44 51°15.031 2°53.883 23.8656 0.021112 0.11044 -1.592577
2008-07-23 13:35:44 51°14.87 2°54.08 23.8508 0.020906 0.10938 -1.592577
2008-07-23 13:36:44 51°14.722 2°54.292 23.8446 0.022964 0.119941 -1.592577
2008-07-23 13:37:44 51°14.591 2°54.534 23.8979 0.021421 0.111997 -1.592577
2008-07-23 13:38:44 51°14.472 2°54.795 23.8784 0.021935 0.114639 -1.557753
2008-07-23 13:39:44 51°14.349 2°55.057 23.8886 0.0207 0.108297 -1.592577
2008-07-23 13:40:44 51°14.254 2°55.259 23.9024 0.022244 0.116205 -1.592577
2008-07-23 13:41:44 51°14.168 2°55.37 23.9121 0.022141 0.11567 -1.592577
2008-07-23 13:42:44 51°14.091 2°55.431 23.9231 0.02245 0.117247 -1.592577
2008-07-23 13:43:48 51°14 2°55.498 23.9385 0.024405 0.127314 -1.592577